sensor_id;sensor_type;location;lat;lon;timestamp;P1;durP1;ratioP1;P2;durP2;ratioP2
14900;SDS011;7542;49.078;9.194;2022-08-19T00:02:00;10.20;;;8.97;;
14900;SDS011;7542;49.078;9.194;2022-08-19T00:04:29;9.87;;;8.87;;
14900;SDS011;7542;49.078;9.194;2022-08-19T00:07:01;9.53;;;8.60;;
14900;SDS011;7542;49.078;9.194;2022-08-19T00:09:29;10.07;;;8.40;;
14900;SDS011;7542;49.078;9.194;2022-08-19T00:11:57;9.70;;;8.40;;
14900;SDS011;7542;49.078;9.194;2022-08-19T00:14:26;9.77;;;8.77;;
14900;SDS011;7542;49.078;9.194;2022-08-19T00:16:56;10.43;;;8.70;;
14900;SDS011;7542;49.078;9.194;2022-08-19T00:19:23;10.33;;;9.03;;
14900;SDS011;7542;49.078;9.194;2022-08-19T00:21:51;10.73;;;9.63;;
14900;SDS011;7542;49.078;9.194;2022-08-19T00:24:18;9.67;;;8.67;;
14900;SDS011;7542;49.078;9.194;2022-08-19T00:26:45;10.00;;;9.00;;
14900;SDS011;7542;49.078;9.194;2022-08-19T00:29:13;10.20;;;8.77;;
14900;SDS011;7542;49.078;9.194;2022-08-19T00:31:43;11.70;;;9.17;;
14900;SDS011;7542;49.078;9.194;2022-08-19T00:34:11;9.83;;;8.47;;
14900;SDS011;7542;49.078;9.194;2022-08-19T00:36:40;12.47;;;9.53;;
14900;SDS011;7542;49.078;9.194;2022-08-19T00:39:08;10.43;;;9.30;;
14900;SDS011;7542;49.078;9.194;2022-08-19T00:41:38;9.97;;;8.90;;
14900;SDS011;7542;49.078;9.194;2022-08-19T00:44:27;13.43;;;9.47;;
14900;SDS011;7542;49.078;9.194;2022-08-19T00:46:56;11.07;;;9.90;;
14900;SDS011;7542;49.078;9.194;2022-08-19T00:49:30;11.57;;;9.80;;
14900;SDS011;7542;49.078;9.194;2022-08-19T00:52:13;10.87;;;9.67;;
14900;SDS011;7542;49.078;9.194;2022-08-19T00:54:45;10.77;;;9.63;;
14900;SDS011;7542;49.078;9.194;2022-08-19T00:57:18;12.57;;;9.40;;
14900;SDS011;7542;49.078;9.194;2022-08-19T00:59:54;10.00;;;9.00;;
14900;SDS011;7542;49.078;9.194;2022-08-19T01:02:28;11.03;;;9.43;;
14900;SDS011;7542;49.078;9.194;2022-08-19T01:04:59;10.70;;;9.27;;
14900;SDS011;7542;49.078;9.194;2022-08-19T01:07:28;11.07;;;9.63;;
14900;SDS011;7542;49.078;9.194;2022-08-19T01:10:03;12.17;;;9.97;;
14900;SDS011;7542;49.078;9.194;2022-08-19T01:12:37;13.10;;;10.23;;
14900;SDS011;7542;49.078;9.194;2022-08-19T01:15:06;10.53;;;9.53;;
14900;SDS011;7542;49.078;9.194;2022-08-19T01:17:38;11.60;;;9.43;;
14900;SDS011;7542;49.078;9.194;2022-08-19T01:20:18;12.40;;;9.43;;
14900;SDS011;7542;49.078;9.194;2022-08-19T01:22:50;11.20;;;9.60;;
14900;SDS011;7542;49.078;9.194;2022-08-19T01:25:22;10.67;;;9.20;;
14900;SDS011;7542;49.078;9.194;2022-08-19T01:27:55;12.20;;;9.30;;
14900;SDS011;7542;49.078;9.194;2022-08-19T01:30:36;11.93;;;9.83;;
14900;SDS011;7542;49.078;9.194;2022-08-19T01:33:03;10.90;;;9.70;;
14900;SDS011;7542;49.078;9.194;2022-08-19T01:35:31;11.30;;;9.53;;
14900;SDS011;7542;49.078;9.194;2022-08-19T01:38:00;11.67;;;9.90;;
14900;SDS011;7542;49.078;9.194;2022-08-19T01:40:36;14.70;;;10.13;;
14900;SDS011;7542;49.078;9.194;2022-08-19T01:43:06;10.97;;;9.53;;
14900;SDS011;7542;49.078;9.194;2022-08-19T01:45:34;10.93;;;9.67;;
14900;SDS011;7542;49.078;9.194;2022-08-19T01:48:02;11.07;;;9.90;;
14900;SDS011;7542;49.078;9.194;2022-08-19T01:50:30;11.73;;;10.03;;
14900;SDS011;7542;49.078;9.194;2022-08-19T01:53:00;10.73;;;8.77;;
14900;SDS011;7542;49.078;9.194;2022-08-19T01:55:33;11.37;;;9.43;;
14900;SDS011;7542;49.078;9.194;2022-08-19T01:58:07;13.47;;;10.13;;
14900;SDS011;7542;49.078;9.194;2022-08-19T02:00:45;10.17;;;9.17;;
14900;SDS011;7542;49.078;9.194;2022-08-19T02:03:13;11.77;;;9.47;;
14900;SDS011;7542;49.078;9.194;2022-08-19T02:05:42;11.37;;;10.17;;
14900;SDS011;7542;49.078;9.194;2022-08-19T02:08:10;13.90;;;10.83;;
14900;SDS011;7542;49.078;9.194;2022-08-19T02:10:38;13.17;;;10.13;;
14900;SDS011;7542;49.078;9.194;2022-08-19T02:13:10;11.00;;;9.67;;
14900;SDS011;7542;49.078;9.194;2022-08-19T02:15:39;12.00;;;10.63;;
14900;SDS011;7542;49.078;9.194;2022-08-19T02:18:07;11.57;;;10.37;;
14900;SDS011;7542;49.078;9.194;2022-08-19T02:20:34;12.93;;;10.37;;
14900;SDS011;7542;49.078;9.194;2022-08-19T02:23:03;12.97;;;10.10;;
14900;SDS011;7542;49.078;9.194;2022-08-19T02:25:38;12.17;;;9.80;;
14900;SDS011;7542;49.078;9.194;2022-08-19T02:28:06;12.37;;;10.33;;
14900;SDS011;7542;49.078;9.194;2022-08-19T02:30:33;11.43;;;9.63;;
14900;SDS011;7542;49.078;9.194;2022-08-19T02:33:00;11.43;;;9.00;;
14900;SDS011;7542;49.078;9.194;2022-08-19T02:35:27;11.43;;;10.00;;
14900;SDS011;7542;49.078;9.194;2022-08-19T02:37:54;11.93;;;9.87;;
14900;SDS011;7542;49.078;9.194;2022-08-19T02:40:39;12.03;;;10.03;;
14900;SDS011;7542;49.078;9.194;2022-08-19T02:43:07;13.17;;;9.87;;
14900;SDS011;7542;49.078;9.194;2022-08-19T02:45:36;13.10;;;10.33;;
14900;SDS011;7542;49.078;9.194;2022-08-19T02:48:07;14.10;;;10.00;;
14900;SDS011;7542;49.078;9.194;2022-08-19T02:50:47;14.00;;;10.13;;
14900;SDS011;7542;49.078;9.194;2022-08-19T02:53:22;15.67;;;11.00;;
14900;SDS011;7542;49.078;9.194;2022-08-19T02:55:52;13.70;;;10.30;;
14900;SDS011;7542;49.078;9.194;2022-08-19T02:58:21;14.13;;;10.53;;
14900;SDS011;7542;49.078;9.194;2022-08-19T03:00:52;15.77;;;10.83;;
14900;SDS011;7542;49.078;9.194;2022-08-19T03:03:22;14.30;;;10.43;;
14900;SDS011;7542;49.078;9.194;2022-08-19T03:05:49;13.63;;;10.80;;
14900;SDS011;7542;49.078;9.194;2022-08-19T03:08:22;14.67;;;10.80;;
14900;SDS011;7542;49.078;9.194;2022-08-19T03:10:51;14.43;;;10.60;;
14900;SDS011;7542;49.078;9.194;2022-08-19T03:13:19;14.10;;;10.50;;
14900;SDS011;7542;49.078;9.194;2022-08-19T03:15:46;16.80;;;11.03;;
14900;SDS011;7542;49.078;9.194;2022-08-19T03:18:15;16.90;;;11.10;;
14900;SDS011;7542;49.078;9.194;2022-08-19T03:20:52;16.20;;;11.20;;
14900;SDS011;7542;49.078;9.194;2022-08-19T03:23:20;14.37;;;11.00;;
14900;SDS011;7542;49.078;9.194;2022-08-19T03:25:51;16.73;;;11.30;;
14900;SDS011;7542;49.078;9.194;2022-08-19T03:28:39;15.03;;;10.63;;
14900;SDS011;7542;49.078;9.194;2022-08-19T03:31:15;17.17;;;12.00;;
14900;SDS011;7542;49.078;9.194;2022-08-19T03:34:05;17.20;;;11.13;;
14900;SDS011;7542;49.078;9.194;2022-08-19T03:36:33;15.50;;;11.27;;
14900;SDS011;7542;49.078;9.194;2022-08-19T03:39:00;14.50;;;10.87;;
14900;SDS011;7542;49.078;9.194;2022-08-19T03:41:28;14.57;;;10.60;;
14900;SDS011;7542;49.078;9.194;2022-08-19T03:44:10;16.10;;;10.70;;
14900;SDS011;7542;49.078;9.194;2022-08-19T03:46:44;14.70;;;10.73;;
14900;SDS011;7542;49.078;9.194;2022-08-19T03:49:14;15.43;;;11.80;;
14900;SDS011;7542;49.078;9.194;2022-08-19T03:51:44;18.27;;;11.43;;
14900;SDS011;7542;49.078;9.194;2022-08-19T03:54:13;18.20;;;11.63;;
14900;SDS011;7542;49.078;9.194;2022-08-19T03:56:45;17.23;;;11.63;;
14900;SDS011;7542;49.078;9.194;2022-08-19T03:59:20;15.70;;;11.70;;
14900;SDS011;7542;49.078;9.194;2022-08-19T04:01:52;16.83;;;11.70;;
14900;SDS011;7542;49.078;9.194;2022-08-19T04:04:21;17.83;;;11.83;;
14900;SDS011;7542;49.078;9.194;2022-08-19T04:06:49;14.23;;;11.03;;
14900;SDS011;7542;49.078;9.194;2022-08-19T04:09:17;16.03;;;11.77;;
14900;SDS011;7542;49.078;9.194;2022-08-19T04:11:47;18.23;;;11.57;;
14900;SDS011;7542;49.078;9.194;2022-08-19T04:14:23;16.87;;;11.90;;
14900;SDS011;7542;49.078;9.194;2022-08-19T04:16:56;16.70;;;11.77;;
14900;SDS011;7542;49.078;9.194;2022-08-19T04:19:25;17.27;;;11.50;;
14900;SDS011;7542;49.078;9.194;2022-08-19T04:21:58;18.33;;;12.07;;
14900;SDS011;7542;49.078;9.194;2022-08-19T04:24:25;17.20;;;11.20;;
14900;SDS011;7542;49.078;9.194;2022-08-19T04:26:53;17.10;;;12.23;;
14900;SDS011;7542;49.078;9.194;2022-08-19T04:29:21;15.97;;;11.37;;
14900;SDS011;7542;49.078;9.194;2022-08-19T04:31:53;16.77;;;11.20;;
14900;SDS011;7542;49.078;9.194;2022-08-19T04:34:23;17.00;;;11.97;;
14900;SDS011;7542;49.078;9.194;2022-08-19T04:36:54;18.97;;;11.60;;
14900;SDS011;7542;49.078;9.194;2022-08-19T04:39:28;17.20;;;11.67;;
14900;SDS011;7542;49.078;9.194;2022-08-19T04:42:16;17.60;;;12.30;;
14900;SDS011;7542;49.078;9.194;2022-08-19T04:45:04;17.37;;;11.73;;
14900;SDS011;7542;49.078;9.194;2022-08-19T04:47:37;16.50;;;12.27;;
14900;SDS011;7542;49.078;9.194;2022-08-19T04:50:17;17.60;;;11.97;;
14900;SDS011;7542;49.078;9.194;2022-08-19T04:52:44;16.97;;;11.63;;
14900;SDS011;7542;49.078;9.194;2022-08-19T04:55:12;17.00;;;12.27;;
14900;SDS011;7542;49.078;9.194;2022-08-19T04:57:39;15.90;;;11.97;;
14900;SDS011;7542;49.078;9.194;2022-08-19T05:00:07;16.87;;;12.00;;
14900;SDS011;7542;49.078;9.194;2022-08-19T05:02:37;16.33;;;11.63;;
14900;SDS011;7542;49.078;9.194;2022-08-19T05:05:04;17.67;;;11.87;;
14900;SDS011;7542;49.078;9.194;2022-08-19T05:07:32;17.10;;;12.67;;
14900;SDS011;7542;49.078;9.194;2022-08-19T05:09:59;18.57;;;12.47;;
14900;SDS011;7542;49.078;9.194;2022-08-19T05:12:26;18.10;;;12.47;;
14900;SDS011;7542;49.078;9.194;2022-08-19T05:14:55;18.80;;;13.30;;
14900;SDS011;7542;49.078;9.194;2022-08-19T05:17:25;17.80;;;12.27;;
14900;SDS011;7542;49.078;9.194;2022-08-19T05:20:00;17.40;;;13.00;;
14900;SDS011;7542;49.078;9.194;2022-08-19T05:22:46;18.80;;;13.00;;
14900;SDS011;7542;49.078;9.194;2022-08-19T05:25:16;17.00;;;12.57;;
14900;SDS011;7542;49.078;9.194;2022-08-19T05:27:46;19.37;;;13.13;;
14900;SDS011;7542;49.078;9.194;2022-08-19T05:30:14;24.07;;;12.67;;
14900;SDS011;7542;49.078;9.194;2022-08-19T05:32:42;18.93;;;13.47;;
14900;SDS011;7542;49.078;9.194;2022-08-19T05:35:10;19.40;;;13.00;;
14900;SDS011;7542;49.078;9.194;2022-08-19T05:37:37;16.90;;;12.70;;
14900;SDS011;7542;49.078;9.194;2022-08-19T05:40:06;19.93;;;13.13;;
14900;SDS011;7542;49.078;9.194;2022-08-19T05:42:35;17.83;;;12.67;;
14900;SDS011;7542;49.078;9.194;2022-08-19T05:45:02;19.07;;;12.57;;
14900;SDS011;7542;49.078;9.194;2022-08-19T05:47:30;17.63;;;12.13;;
14900;SDS011;7542;49.078;9.194;2022-08-19T05:49:58;19.30;;;13.20;;
14900;SDS011;7542;49.078;9.194;2022-08-19T05:52:30;18.53;;;12.73;;
14900;SDS011;7542;49.078;9.194;2022-08-19T05:54:58;15.57;;;12.40;;
14900;SDS011;7542;49.078;9.194;2022-08-19T05:57:25;15.37;;;12.50;;
14900;SDS011;7542;49.078;9.194;2022-08-19T05:59:54;15.23;;;11.90;;
14900;SDS011;7542;49.078;9.194;2022-08-19T06:02:27;16.90;;;12.33;;
14900;SDS011;7542;49.078;9.194;2022-08-19T06:04:57;20.27;;;12.87;;
14900;SDS011;7542;49.078;9.194;2022-08-19T06:07:24;17.60;;;12.87;;
14900;SDS011;7542;49.078;9.194;2022-08-19T06:09:51;21.23;;;13.43;;
14900;SDS011;7542;49.078;9.194;2022-08-19T06:12:27;17.87;;;13.10;;
14900;SDS011;7542;49.078;9.194;2022-08-19T06:14:58;17.90;;;12.53;;
14900;SDS011;7542;49.078;9.194;2022-08-19T06:17:30;18.90;;;12.73;;
14900;SDS011;7542;49.078;9.194;2022-08-19T06:20:01;18.33;;;13.27;;
14900;SDS011;7542;49.078;9.194;2022-08-19T06:22:38;21.17;;;13.17;;
14900;SDS011;7542;49.078;9.194;2022-08-19T06:25:11;16.57;;;12.73;;
14900;SDS011;7542;49.078;9.194;2022-08-19T06:27:40;18.67;;;13.33;;
14900;SDS011;7542;49.078;9.194;2022-08-19T06:30:28;17.03;;;12.60;;
14900;SDS011;7542;49.078;9.194;2022-08-19T06:32:55;15.90;;;12.73;;
14900;SDS011;7542;49.078;9.194;2022-08-19T06:35:22;16.37;;;12.67;;
14900;SDS011;7542;49.078;9.194;2022-08-19T06:37:49;19.33;;;13.00;;
14900;SDS011;7542;49.078;9.194;2022-08-19T06:40:16;18.17;;;12.60;;
14900;SDS011;7542;49.078;9.194;2022-08-19T06:42:43;16.73;;;13.43;;
14900;SDS011;7542;49.078;9.194;2022-08-19T06:45:20;17.53;;;12.70;;
14900;SDS011;7542;49.078;9.194;2022-08-19T06:47:50;19.73;;;13.43;;
14900;SDS011;7542;49.078;9.194;2022-08-19T06:50:22;16.13;;;12.53;;
14900;SDS011;7542;49.078;9.194;2022-08-19T06:52:50;18.70;;;12.40;;
14900;SDS011;7542;49.078;9.194;2022-08-19T06:55:18;18.07;;;12.77;;
14900;SDS011;7542;49.078;9.194;2022-08-19T06:57:45;16.60;;;12.33;;
14900;SDS011;7542;49.078;9.194;2022-08-19T07:00:14;19.77;;;12.57;;
14900;SDS011;7542;49.078;9.194;2022-08-19T07:02:42;16.73;;;12.63;;
14900;SDS011;7542;49.078;9.194;2022-08-19T07:05:20;14.27;;;11.27;;
14900;SDS011;7542;49.078;9.194;2022-08-19T07:07:48;17.53;;;11.67;;
14900;SDS011;7542;49.078;9.194;2022-08-19T07:10:16;15.27;;;11.47;;
14900;SDS011;7542;49.078;9.194;2022-08-19T07:12:43;19.43;;;12.20;;
14900;SDS011;7542;49.078;9.194;2022-08-19T07:15:10;14.60;;;11.90;;
14900;SDS011;7542;49.078;9.194;2022-08-19T07:17:38;14.10;;;10.30;;
14900;SDS011;7542;49.078;9.194;2022-08-19T07:20:07;14.40;;;11.17;;
14900;SDS011;7542;49.078;9.194;2022-08-19T07:22:36;15.27;;;11.40;;
14900;SDS011;7542;49.078;9.194;2022-08-19T07:25:06;15.93;;;11.70;;
14900;SDS011;7542;49.078;9.194;2022-08-19T07:27:35;16.57;;;11.77;;
14900;SDS011;7542;49.078;9.194;2022-08-19T07:30:05;16.47;;;12.40;;
14900;SDS011;7542;49.078;9.194;2022-08-19T07:32:37;15.97;;;11.20;;
14900;SDS011;7542;49.078;9.194;2022-08-19T07:35:05;16.93;;;11.80;;
14900;SDS011;7542;49.078;9.194;2022-08-19T07:37:33;15.90;;;11.57;;
14900;SDS011;7542;49.078;9.194;2022-08-19T07:40:01;14.60;;;10.60;;
14900;SDS011;7542;49.078;9.194;2022-08-19T07:42:33;15.00;;;11.17;;
14900;SDS011;7542;49.078;9.194;2022-08-19T07:45:00;15.07;;;10.57;;
14900;SDS011;7542;49.078;9.194;2022-08-19T07:47:27;14.00;;;10.83;;
14900;SDS011;7542;49.078;9.194;2022-08-19T07:50:14;16.07;;;10.93;;
14900;SDS011;7542;49.078;9.194;2022-08-19T07:52:42;16.17;;;11.53;;
14900;SDS011;7542;49.078;9.194;2022-08-19T07:55:14;11.83;;;10.57;;
14900;SDS011;7542;49.078;9.194;2022-08-19T07:58:04;12.63;;;10.50;;
14900;SDS011;7542;49.078;9.194;2022-08-19T08:00:31;16.13;;;10.83;;
14900;SDS011;7542;49.078;9.194;2022-08-19T08:02:58;11.37;;;9.90;;
14900;SDS011;7542;49.078;9.194;2022-08-19T08:05:25;17.47;;;10.63;;
14900;SDS011;7542;49.078;9.194;2022-08-19T08:08:11;13.00;;;10.10;;
14900;SDS011;7542;49.078;9.194;2022-08-19T08:10:57;13.53;;;9.07;;
14900;SDS011;7542;49.078;9.194;2022-08-19T08:13:26;14.73;;;9.83;;
14900;SDS011;7542;49.078;9.194;2022-08-19T08:15:54;13.77;;;9.87;;
14900;SDS011;7542;49.078;9.194;2022-08-19T08:18:23;13.70;;;9.83;;
14900;SDS011;7542;49.078;9.194;2022-08-19T08:20:53;12.10;;;9.43;;
14900;SDS011;7542;49.078;9.194;2022-08-19T08:23:22;13.57;;;10.13;;
14900;SDS011;7542;49.078;9.194;2022-08-19T08:25:52;12.93;;;9.50;;
14900;SDS011;7542;49.078;9.194;2022-08-19T08:28:23;15.93;;;9.70;;
14900;SDS011;7542;49.078;9.194;2022-08-19T08:30:55;12.27;;;9.10;;
14900;SDS011;7542;49.078;9.194;2022-08-19T08:33:25;10.07;;;8.93;;
14900;SDS011;7542;49.078;9.194;2022-08-19T08:36:01;12.73;;;10.07;;
14900;SDS011;7542;49.078;9.194;2022-08-19T08:38:31;11.37;;;8.90;;
14900;SDS011;7542;49.078;9.194;2022-08-19T08:41:08;10.67;;;8.87;;
14900;SDS011;7542;49.078;9.194;2022-08-19T08:44:41;10.97;;;8.97;;
14900;SDS011;7542;49.078;9.194;2022-08-19T08:47:42;11.93;;;9.37;;
14900;SDS011;7542;49.078;9.194;2022-08-19T08:50:18;9.93;;;8.67;;
14900;SDS011;7542;49.078;9.194;2022-08-19T08:52:56;13.17;;;9.07;;
14900;SDS011;7542;49.078;9.194;2022-08-19T08:55:26;10.90;;;8.67;;
14900;SDS011;7542;49.078;9.194;2022-08-19T08:58:16;11.20;;;8.77;;
14900;SDS011;7542;49.078;9.194;2022-08-19T09:00:55;11.77;;;8.77;;
14900;SDS011;7542;49.078;9.194;2022-08-19T09:03:24;10.33;;;8.43;;
14900;SDS011;7542;49.078;9.194;2022-08-19T09:09:02;9.33;;;8.13;;
14900;SDS011;7542;49.078;9.194;2022-08-19T09:11:48;10.73;;;7.90;;
14900;SDS011;7542;49.078;9.194;2022-08-19T09:14:33;11.20;;;7.73;;
14900;SDS011;7542;49.078;9.194;2022-08-19T09:17:23;8.10;;;7.30;;
14900;SDS011;7542;49.078;9.194;2022-08-19T09:22:44;8.83;;;7.57;;
14900;SDS011;7542;49.078;9.194;2022-08-19T09:25:14;8.30;;;7.50;;
14900;SDS011;7542;49.078;9.194;2022-08-19T09:27:52;7.40;;;6.67;;
14900;SDS011;7542;49.078;9.194;2022-08-19T09:30:29;9.30;;;7.23;;
14900;SDS011;7542;49.078;9.194;2022-08-19T09:33:00;8.50;;;7.13;;
14900;SDS011;7542;49.078;9.194;2022-08-19T09:35:28;8.40;;;7.53;;
14900;SDS011;7542;49.078;9.194;2022-08-19T09:37:56;7.90;;;7.07;;
14900;SDS011;7542;49.078;9.194;2022-08-19T09:40:29;7.23;;;6.63;;
14900;SDS011;7542;49.078;9.194;2022-08-19T09:43:03;8.93;;;6.83;;
14900;SDS011;7542;49.078;9.194;2022-08-19T09:45:36;9.97;;;6.93;;
14900;SDS011;7542;49.078;9.194;2022-08-19T09:48:03;8.20;;;7.30;;
14900;SDS011;7542;49.078;9.194;2022-08-19T09:50:31;9.87;;;6.67;;
14900;SDS011;7542;49.078;9.194;2022-08-19T09:53:00;8.83;;;6.57;;
14900;SDS011;7542;49.078;9.194;2022-08-19T09:55:27;7.90;;;7.13;;
14900;SDS011;7542;49.078;9.194;2022-08-19T09:57:58;6.97;;;6.30;;
14900;SDS011;7542;49.078;9.194;2022-08-19T10:00:29;8.67;;;6.73;;
14900;SDS011;7542;49.078;9.194;2022-08-19T10:02:57;6.43;;;5.87;;
14900;SDS011;7542;49.078;9.194;2022-08-19T10:05:24;7.00;;;6.30;;
14900;SDS011;7542;49.078;9.194;2022-08-19T10:08:09;6.50;;;6.00;;
14900;SDS011;7542;49.078;9.194;2022-08-19T10:10:39;6.47;;;5.90;;
14900;SDS011;7542;49.078;9.194;2022-08-19T10:13:13;6.97;;;5.67;;
14900;SDS011;7542;49.078;9.194;2022-08-19T10:15:42;6.00;;;5.43;;
14900;SDS011;7542;49.078;9.194;2022-08-19T10:18:12;6.23;;;5.43;;
14900;SDS011;7542;49.078;9.194;2022-08-19T10:20:40;5.30;;;4.90;;
14900;SDS011;7542;49.078;9.194;2022-08-19T10:23:08;5.90;;;5.30;;
14900;SDS011;7542;49.078;9.194;2022-08-19T10:25:35;5.10;;;4.70;;
14900;SDS011;7542;49.078;9.194;2022-08-19T10:28:03;4.63;;;4.23;;
14900;SDS011;7542;49.078;9.194;2022-08-19T10:30:36;4.77;;;4.37;;
14900;SDS011;7542;49.078;9.194;2022-08-19T10:33:04;5.20;;;4.60;;
14900;SDS011;7542;49.078;9.194;2022-08-19T10:35:36;4.63;;;4.27;;
14900;SDS011;7542;49.078;9.194;2022-08-19T10:38:22;5.90;;;3.93;;
14900;SDS011;7542;49.078;9.194;2022-08-19T10:40:58;4.33;;;3.93;;
14900;SDS011;7542;49.078;9.194;2022-08-19T10:43:40;4.30;;;3.90;;
14900;SDS011;7542;49.078;9.194;2022-08-19T10:46:08;4.57;;;4.27;;
14900;SDS011;7542;49.078;9.194;2022-08-19T10:48:42;4.10;;;3.90;;
14900;SDS011;7542;49.078;9.194;2022-08-19T10:51:11;4.53;;;4.23;;
14900;SDS011;7542;49.078;9.194;2022-08-19T10:53:57;4.40;;;4.10;;
14900;SDS011;7542;49.078;9.194;2022-08-19T10:56:25;4.13;;;3.93;;
14900;SDS011;7542;49.078;9.194;2022-08-19T10:59:12;3.90;;;3.72;;
14900;SDS011;7542;49.078;9.194;2022-08-19T11:01:42;4.10;;;3.70;;
14900;SDS011;7542;49.078;9.194;2022-08-19T11:04:12;4.05;;;3.85;;
14900;SDS011;7542;49.078;9.194;2022-08-19T11:06:40;4.00;;;3.70;;
14900;SDS011;7542;49.078;9.194;2022-08-19T11:09:09;3.95;;;3.72;;
14900;SDS011;7542;49.078;9.194;2022-08-19T11:11:37;3.90;;;3.70;;
14900;SDS011;7542;49.078;9.194;2022-08-19T11:14:08;3.80;;;3.60;;
14900;SDS011;7542;49.078;9.194;2022-08-19T11:16:40;4.40;;;4.10;;
14900;SDS011;7542;49.078;9.194;2022-08-19T11:19:09;4.15;;;3.88;;
14900;SDS011;7542;49.078;9.194;2022-08-19T11:21:39;4.03;;;3.67;;
14900;SDS011;7542;49.078;9.194;2022-08-19T11:24:14;4.50;;;4.20;;
14900;SDS011;7542;49.078;9.194;2022-08-19T11:26:46;4.53;;;4.22;;
14900;SDS011;7542;49.078;9.194;2022-08-19T11:29:16;4.28;;;3.90;;
14900;SDS011;7542;49.078;9.194;2022-08-19T11:31:46;3.63;;;3.42;;
14900;SDS011;7542;49.078;9.194;2022-08-19T11:34:17;4.47;;;4.18;;
14900;SDS011;7542;49.078;9.194;2022-08-19T11:36:49;3.88;;;3.60;;
14900;SDS011;7542;49.078;9.194;2022-08-19T11:39:19;3.90;;;3.67;;
14900;SDS011;7542;49.078;9.194;2022-08-19T11:41:48;3.83;;;3.47;;
14900;SDS011;7542;49.078;9.194;2022-08-19T11:44:15;3.67;;;3.50;;
14900;SDS011;7542;49.078;9.194;2022-08-19T11:46:42;3.70;;;3.50;;
14900;SDS011;7542;49.078;9.194;2022-08-19T11:49:13;4.30;;;4.03;;
14900;SDS011;7542;49.078;9.194;2022-08-19T11:51:45;5.28;;;3.72;;
14900;SDS011;7542;49.078;9.194;2022-08-19T11:54:13;4.00;;;3.70;;
14900;SDS011;7542;49.078;9.194;2022-08-19T11:56:43;5.67;;;3.77;;
14900;SDS011;7542;49.078;9.194;2022-08-19T11:59:12;3.63;;;3.42;;
14900;SDS011;7542;49.078;9.194;2022-08-19T12:01:40;3.70;;;3.50;;
14900;SDS011;7542;49.078;9.194;2022-08-19T12:04:08;3.75;;;3.55;;
14900;SDS011;7542;49.078;9.194;2022-08-19T12:06:37;3.70;;;3.50;;
14900;SDS011;7542;49.078;9.194;2022-08-19T12:09:07;3.80;;;3.58;;
14900;SDS011;7542;49.078;9.194;2022-08-19T12:11:36;3.80;;;3.65;;
14900;SDS011;7542;49.078;9.194;2022-08-19T12:14:04;3.25;;;3.05;;
14900;SDS011;7542;49.078;9.194;2022-08-19T12:16:40;3.85;;;3.55;;
14900;SDS011;7542;49.078;9.194;2022-08-19T12:19:17;4.10;;;3.78;;
14900;SDS011;7542;49.078;9.194;2022-08-19T12:21:48;7.45;;;4.57;;
14900;SDS011;7542;49.078;9.194;2022-08-19T12:24:16;10.45;;;5.35;;
14900;SDS011;7542;49.078;9.194;2022-08-19T12:26:49;6.05;;;5.13;;
14900;SDS011;7542;49.078;9.194;2022-08-19T12:29:19;6.85;;;5.28;;
14900;SDS011;7542;49.078;9.194;2022-08-19T12:31:49;5.43;;;4.93;;
14900;SDS011;7542;49.078;9.194;2022-08-19T12:34:16;5.53;;;5.03;;
14900;SDS011;7542;49.078;9.194;2022-08-19T12:36:46;5.90;;;5.00;;
14900;SDS011;7542;49.078;9.194;2022-08-19T12:39:15;5.70;;;4.95;;
14900;SDS011;7542;49.078;9.194;2022-08-19T12:41:42;5.55;;;5.15;;
14900;SDS011;7542;49.078;9.194;2022-08-19T12:44:20;5.00;;;4.70;;
14900;SDS011;7542;49.078;9.194;2022-08-19T12:46:54;5.88;;;5.28;;
14900;SDS011;7542;49.078;9.194;2022-08-19T12:49:23;6.20;;;5.63;;
14900;SDS011;7542;49.078;9.194;2022-08-19T12:52:10;5.77;;;5.33;;
14900;SDS011;7542;49.078;9.194;2022-08-19T12:54:41;6.60;;;5.90;;
14900;SDS011;7542;49.078;9.194;2022-08-19T12:57:09;6.63;;;5.80;;
14900;SDS011;7542;49.078;9.194;2022-08-19T12:59:37;6.32;;;5.82;;
14900;SDS011;7542;49.078;9.194;2022-08-19T13:02:05;6.18;;;5.15;;
14900;SDS011;7542;49.078;9.194;2022-08-19T13:04:34;6.33;;;5.50;;
14900;SDS011;7542;49.078;9.194;2022-08-19T13:07:02;5.85;;;5.28;;
14900;SDS011;7542;49.078;9.194;2022-08-19T13:09:29;6.50;;;5.90;;
14900;SDS011;7542;49.078;9.194;2022-08-19T13:11:56;6.67;;;5.63;;
14900;SDS011;7542;49.078;9.194;2022-08-19T13:14:23;6.47;;;5.77;;
14900;SDS011;7542;49.078;9.194;2022-08-19T13:16:52;6.83;;;5.60;;
14900;SDS011;7542;49.078;9.194;2022-08-19T13:19:18;6.63;;;5.23;;
14900;SDS011;7542;49.078;9.194;2022-08-19T13:21:48;5.63;;;5.13;;
14900;SDS011;7542;49.078;9.194;2022-08-19T13:24:25;5.77;;;5.27;;
14900;SDS011;7542;49.078;9.194;2022-08-19T13:26:59;8.17;;;5.60;;
14900;SDS011;7542;49.078;9.194;2022-08-19T13:29:26;5.67;;;5.27;;
14900;SDS011;7542;49.078;9.194;2022-08-19T13:32:12;6.00;;;5.50;;
14900;SDS011;7542;49.078;9.194;2022-08-19T13:34:57;5.30;;;4.80;;
14900;SDS011;7542;49.078;9.194;2022-08-19T13:37:24;5.80;;;4.73;;
14900;SDS011;7542;49.078;9.194;2022-08-19T13:40:10;6.10;;;4.70;;
14900;SDS011;7542;49.078;9.194;2022-08-19T13:42:48;4.70;;;4.37;;
14900;SDS011;7542;49.078;9.194;2022-08-19T13:45:19;4.90;;;4.40;;
14900;SDS011;7542;49.078;9.194;2022-08-19T13:47:50;4.73;;;4.40;;
14900;SDS011;7542;49.078;9.194;2022-08-19T13:50:26;4.50;;;4.20;;
14900;SDS011;7542;49.078;9.194;2022-08-19T13:52:57;5.15;;;4.72;;
14900;SDS011;7542;49.078;9.194;2022-08-19T13:55:25;4.78;;;4.45;;
14900;SDS011;7542;49.078;9.194;2022-08-19T13:57:53;5.00;;;4.60;;
14900;SDS011;7542;49.078;9.194;2022-08-19T14:00:24;5.22;;;4.72;;
14900;SDS011;7542;49.078;9.194;2022-08-19T14:02:56;5.60;;;5.10;;
14900;SDS011;7542;49.078;9.194;2022-08-19T14:05:25;5.50;;;4.97;;
14900;SDS011;7542;49.078;9.194;2022-08-19T14:07:54;5.60;;;4.95;;
14900;SDS011;7542;49.078;9.194;2022-08-19T14:10:22;5.75;;;5.18;;
14900;SDS011;7542;49.078;9.194;2022-08-19T14:12:57;6.57;;;5.20;;
14900;SDS011;7542;49.078;9.194;2022-08-19T14:15:27;5.33;;;4.57;;
14900;SDS011;7542;49.078;9.194;2022-08-19T14:17:55;5.10;;;4.70;;
14900;SDS011;7542;49.078;9.194;2022-08-19T14:20:22;5.20;;;4.70;;
14900;SDS011;7542;49.078;9.194;2022-08-19T14:22:51;5.27;;;4.83;;
14900;SDS011;7542;49.078;9.194;2022-08-19T14:25:21;7.63;;;4.70;;
14900;SDS011;7542;49.078;9.194;2022-08-19T14:27:53;4.90;;;4.43;;
14900;SDS011;7542;49.078;9.194;2022-08-19T14:30:22;5.30;;;4.80;;
14900;SDS011;7542;49.078;9.194;2022-08-19T14:32:56;4.97;;;4.65;;
14900;SDS011;7542;49.078;9.194;2022-08-19T14:35:26;4.93;;;4.47;;
14900;SDS011;7542;49.078;9.194;2022-08-19T14:37:55;5.07;;;4.60;;
14900;SDS011;7542;49.078;9.194;2022-08-19T14:40:24;4.87;;;4.47;;
14900;SDS011;7542;49.078;9.194;2022-08-19T14:42:56;5.07;;;4.30;;
14900;SDS011;7542;49.078;9.194;2022-08-19T14:45:39;4.82;;;4.40;;
14900;SDS011;7542;49.078;9.194;2022-08-19T14:48:07;5.03;;;4.73;;
14900;SDS011;7542;49.078;9.194;2022-08-19T14:50:44;4.80;;;4.50;;
14900;SDS011;7542;49.078;9.194;2022-08-19T14:53:11;5.57;;;5.07;;
14900;SDS011;7542;49.078;9.194;2022-08-19T14:55:42;5.60;;;4.37;;
14900;SDS011;7542;49.078;9.194;2022-08-19T14:58:11;4.63;;;4.33;;
14900;SDS011;7542;49.078;9.194;2022-08-19T15:00:55;4.93;;;4.53;;
14900;SDS011;7542;49.078;9.194;2022-08-19T15:03:24;5.20;;;4.60;;
14900;SDS011;7542;49.078;9.194;2022-08-19T15:05:52;5.03;;;4.53;;
14900;SDS011;7542;49.078;9.194;2022-08-19T15:08:19;5.47;;;5.00;;
14900;SDS011;7542;49.078;9.194;2022-08-19T15:10:47;4.70;;;4.30;;
14900;SDS011;7542;49.078;9.194;2022-08-19T15:13:14;5.37;;;4.97;;
14900;SDS011;7542;49.078;9.194;2022-08-19T15:15:41;4.57;;;4.17;;
14900;SDS011;7542;49.078;9.194;2022-08-19T15:18:08;4.97;;;4.60;;
14900;SDS011;7542;49.078;9.194;2022-08-19T15:20:38;5.33;;;4.70;;